sensor_id;sensor_type;location;lat;lon;timestamp;temperature;humidity
76855;DHT22;66343;44.588;33.450;2023-06-14T00:01:33;21.34;74.73
76855;DHT22;66343;44.588;33.450;2023-06-14T00:04:03;21.32;75.03
76855;DHT22;66343;44.588;33.450;2023-06-14T00:06:39;21.32;75.02
76855;DHT22;66343;44.588;33.450;2023-06-14T00:09:16;21.34;74.86
76855;DHT22;66343;44.588;33.450;2023-06-14T00:11:48;21.34;74.85
76855;DHT22;66343;44.588;33.450;2023-06-14T00:14:20;21.36;74.64
76855;DHT22;66343;44.588;33.450;2023-06-14T00:16:52;21.36;74.69
76855;DHT22;66343;44.588;33.450;2023-06-14T00:19:26;21.36;74.67
76855;DHT22;66343;44.588;33.450;2023-06-14T00:22:01;21.33;74.84
76855;DHT22;66343;44.588;33.450;2023-06-14T00:24:35;21.33;74.92
76855;DHT22;66343;44.588;33.450;2023-06-14T00:27:08;21.32;75.25
76855;DHT22;66343;44.588;33.450;2023-06-14T00:29:39;21.32;75.28
76855;DHT22;66343;44.588;33.450;2023-06-14T00:32:09;21.32;75.41
76855;DHT22;66343;44.588;33.450;2023-06-14T00:34:41;21.31;75.59
76855;DHT22;66343;44.588;33.450;2023-06-14T00:37:13;21.27;75.86
76855;DHT22;66343;44.588;33.450;2023-06-14T00:39:43;21.27;75.97
76855;DHT22;66343;44.588;33.450;2023-06-14T00:42:33;21.24;76.10
76855;DHT22;66343;44.588;33.450;2023-06-14T00:45:12;21.22;76.20
76855;DHT22;66343;44.588;33.450;2023-06-14T00:47:48;21.20;76.37
76855;DHT22;66343;44.588;33.450;2023-06-14T00:50:27;21.17;76.24
76855;DHT22;66343;44.588;33.450;2023-06-14T00:52:57;21.15;76.11
76855;DHT22;66343;44.588;33.450;2023-06-14T00:55:30;21.14;76.18
76855;DHT22;66343;44.588;33.450;2023-06-14T00:58:04;21.10;76.07
76855;DHT22;66343;44.588;33.450;2023-06-14T01:00:35;21.07;76.24
76855;DHT22;66343;44.588;33.450;2023-06-14T01:03:11;21.06;76.18
76855;DHT22;66343;44.588;33.450;2023-06-14T01:05:45;21.04;76.35
76855;DHT22;66343;44.588;33.450;2023-06-14T01:08:24;20.98;76.59
76855;DHT22;66343;44.588;33.450;2023-06-14T01:11:10;20.96;76.75
76855;DHT22;66343;44.588;33.450;2023-06-14T01:13:43;20.93;76.90
76855;DHT22;66343;44.588;33.450;2023-06-14T01:16:15;20.90;76.96
76855;DHT22;66343;44.588;33.450;2023-06-14T01:18:46;20.88;77.16
76855;DHT22;66343;44.588;33.450;2023-06-14T01:21:21;20.80;77.60
76855;DHT22;66343;44.588;33.450;2023-06-14T01:23:52;20.74;77.76
76855;DHT22;66343;44.588;33.450;2023-06-14T01:26:23;20.74;77.89
76855;DHT22;66343;44.588;33.450;2023-06-14T01:28:55;20.76;77.61
76855;DHT22;66343;44.588;33.450;2023-06-14T01:31:29;20.77;77.54
76855;DHT22;66343;44.588;33.450;2023-06-14T01:33:58;20.74;77.70
76855;DHT22;66343;44.588;33.450;2023-06-14T01:36:30;20.72;77.78
76855;DHT22;66343;44.588;33.450;2023-06-14T01:39:04;20.69;77.84
76855;DHT22;66343;44.588;33.450;2023-06-14T01:41:35;20.65;78.00
76855;DHT22;66343;44.588;33.450;2023-06-14T01:44:07;20.62;77.93
76855;DHT22;66343;44.588;33.450;2023-06-14T01:46:42;20.59;77.98
76855;DHT22;66343;44.588;33.450;2023-06-14T01:49:12;20.60;77.95
76855;DHT22;66343;44.588;33.450;2023-06-14T01:51:41;20.59;77.85
76855;DHT22;66343;44.588;33.450;2023-06-14T01:54:12;20.63;77.64
76855;DHT22;66343;44.588;33.450;2023-06-14T01:56:48;20.62;77.51
76855;DHT22;66343;44.588;33.450;2023-06-14T01:59:18;20.61;77.52
76855;DHT22;66343;44.588;33.450;2023-06-14T02:01:50;20.58;77.82
76855;DHT22;66343;44.588;33.450;2023-06-14T02:04:27;20.59;77.65
76855;DHT22;66343;44.588;33.450;2023-06-14T02:07:01;20.59;77.63
76855;DHT22;66343;44.588;33.450;2023-06-14T02:09:34;20.57;77.72
76855;DHT22;66343;44.588;33.450;2023-06-14T02:12:10;20.50;78.24
76855;DHT22;66343;44.588;33.450;2023-06-14T02:14:43;20.49;78.44
76855;DHT22;66343;44.588;33.450;2023-06-14T02:17:13;20.49;78.27
76855;DHT22;66343;44.588;33.450;2023-06-14T02:19:48;20.49;78.35
76855;DHT22;66343;44.588;33.450;2023-06-14T02:22:21;20.49;78.26
76855;DHT22;66343;44.588;33.450;2023-06-14T02:24:58;20.53;77.95
76855;DHT22;66343;44.588;33.450;2023-06-14T02:27:34;20.56;77.95
76855;DHT22;66343;44.588;33.450;2023-06-14T02:30:13;20.60;77.72
76855;DHT22;66343;44.588;33.450;2023-06-14T02:32:48;20.61;77.69
76855;DHT22;66343;44.588;33.450;2023-06-14T02:35:25;20.60;77.56
76855;DHT22;66343;44.588;33.450;2023-06-14T02:37:58;20.62;77.39
76855;DHT22;66343;44.588;33.450;2023-06-14T02:40:32;20.60;77.37
76855;DHT22;66343;44.588;33.450;2023-06-14T02:43:04;20.62;77.28
76855;DHT22;66343;44.588;33.450;2023-06-14T02:45:36;20.62;77.40
76855;DHT22;66343;44.588;33.450;2023-06-14T02:48:12;20.58;77.44
76855;DHT22;66343;44.588;33.450;2023-06-14T02:50:49;20.60;77.37
76855;DHT22;66343;44.588;33.450;2023-06-14T02:53:23;20.63;77.23
76855;DHT22;66343;44.588;33.450;2023-06-14T02:55:57;20.66;77.29
76855;DHT22;66343;44.588;33.450;2023-06-14T02:58:32;20.65;77.02
76855;DHT22;66343;44.588;33.450;2023-06-14T03:01:07;20.65;77.15
76855;DHT22;66343;44.588;33.450;2023-06-14T03:03:44;20.62;77.03
76855;DHT22;66343;44.588;33.450;2023-06-14T03:06:16;20.62;77.16
76855;DHT22;66343;44.588;33.450;2023-06-14T03:08:52;20.64;76.88
76855;DHT22;66343;44.588;33.450;2023-06-14T03:11:33;20.66;76.42
76855;DHT22;66343;44.588;33.450;2023-06-14T03:14:08;20.71;76.14
76855;DHT22;66343;44.588;33.450;2023-06-14T03:16:44;20.73;75.70
76855;DHT22;66343;44.588;33.450;2023-06-14T03:19:18;20.74;75.58
76855;DHT22;66343;44.588;33.450;2023-06-14T03:21:53;20.72;75.83
76855;DHT22;66343;44.588;33.450;2023-06-14T03:24:30;20.70;76.01
76855;DHT22;66343;44.588;33.450;2023-06-14T03:27:14;20.69;76.39
76855;DHT22;66343;44.588;33.450;2023-06-14T03:29:54;20.70;76.65
76855;DHT22;66343;44.588;33.450;2023-06-14T03:32:29;20.73;76.66
76855;DHT22;66343;44.588;33.450;2023-06-14T03:35:03;20.72;76.49
76855;DHT22;66343;44.588;33.450;2023-06-14T03:37:36;20.69;76.63
76855;DHT22;66343;44.588;33.450;2023-06-14T03:40:08;20.69;76.43
76855;DHT22;66343;44.588;33.450;2023-06-14T03:42:44;20.60;76.83
76855;DHT22;66343;44.588;33.450;2023-06-14T03:45:18;20.58;77.71
76855;DHT22;66343;44.588;33.450;2023-06-14T03:47:55;20.62;77.58
76855;DHT22;66343;44.588;33.450;2023-06-14T03:50:28;20.63;77.27
76855;DHT22;66343;44.588;33.450;2023-06-14T03:53:04;20.58;77.51
76855;DHT22;66343;44.588;33.450;2023-06-14T03:55:39;20.56;77.59
76855;DHT22;66343;44.588;33.450;2023-06-14T03:58:13;20.57;77.32
76855;DHT22;66343;44.588;33.450;2023-06-14T04:00:50;20.54;77.39
76855;DHT22;66343;44.588;33.450;2023-06-14T04:03:26;20.53;77.36
76855;DHT22;66343;44.588;33.450;2023-06-14T04:06:01;20.48;77.70
76855;DHT22;66343;44.588;33.450;2023-06-14T04:08:33;20.39;77.91
76855;DHT22;66343;44.588;33.450;2023-06-14T04:11:04;20.29;78.63
76855;DHT22;66343;44.588;33.450;2023-06-14T04:13:39;20.27;79.42
76855;DHT22;66343;44.588;33.450;2023-06-14T04:16:16;20.28;79.53
76855;DHT22;66343;44.588;33.450;2023-06-14T04:18:49;20.25;79.57
76855;DHT22;66343;44.588;33.450;2023-06-14T04:21:27;20.21;79.08
76855;DHT22;66343;44.588;33.450;2023-06-14T04:24:00;20.18;78.99
76855;DHT22;66343;44.588;33.450;2023-06-14T04:26:45;20.21;79.36
76855;DHT22;66343;44.588;33.450;2023-06-14T04:29:19;20.27;79.56
76855;DHT22;66343;44.588;33.450;2023-06-14T04:32:01;20.29;79.37
76855;DHT22;66343;44.588;33.450;2023-06-14T04:34:38;20.28;79.93
76855;DHT22;66343;44.588;33.450;2023-06-14T04:37:09;20.28;79.62
76855;DHT22;66343;44.588;33.450;2023-06-14T04:39:50;20.29;79.53
76855;DHT22;66343;44.588;33.450;2023-06-14T04:42:22;20.27;78.93
76855;DHT22;66343;44.588;33.450;2023-06-14T04:44:58;20.25;78.72
76855;DHT22;66343;44.588;33.450;2023-06-14T04:47:28;20.26;78.50
76855;DHT22;66343;44.588;33.450;2023-06-14T04:50:08;20.28;78.75
76855;DHT22;66343;44.588;33.450;2023-06-14T04:52:38;20.32;78.45
76855;DHT22;66343;44.588;33.450;2023-06-14T04:55:31;20.42;77.94
76855;DHT22;66343;44.588;33.450;2023-06-14T04:58:18;20.51;78.43
76855;DHT22;66343;44.588;33.450;2023-06-14T05:01:01;20.62;78.57
76855;DHT22;66343;44.588;33.450;2023-06-14T05:03:31;20.70;78.36
76855;DHT22;66343;44.588;33.450;2023-06-14T05:06:05;20.72;78.33
76855;DHT22;66343;44.588;33.450;2023-06-14T05:08:41;20.73;78.34
76855;DHT22;66343;44.588;33.450;2023-06-14T05:11:15;20.73;77.60
76855;DHT22;66343;44.588;33.450;2023-06-14T05:13:50;20.76;77.89
76855;DHT22;66343;44.588;33.450;2023-06-14T05:16:25;20.85;77.79
76855;DHT22;66343;44.588;33.450;2023-06-14T05:19:04;20.91;77.45
76855;DHT22;66343;44.588;33.450;2023-06-14T05:21:34;21.02;77.22
76855;DHT22;66343;44.588;33.450;2023-06-14T05:24:10;21.10;76.57
76855;DHT22;66343;44.588;33.450;2023-06-14T05:26:40;21.18;75.66
76855;DHT22;66343;44.588;33.450;2023-06-14T05:29:16;21.22;75.79
76855;DHT22;66343;44.588;33.450;2023-06-14T05:31:49;21.23;75.13
76855;DHT22;66343;44.588;33.450;2023-06-14T05:34:20;21.31;75.44
76855;DHT22;66343;44.588;33.450;2023-06-14T05:36:49;21.32;75.35
76855;DHT22;66343;44.588;33.450;2023-06-14T05:39:23;21.22;74.86
76855;DHT22;66343;44.588;33.450;2023-06-14T05:41:55;21.11;75.21
76855;DHT22;66343;44.588;33.450;2023-06-14T05:44:27;21.11;75.26
76855;DHT22;66343;44.588;33.450;2023-06-14T05:46:56;21.09;75.49
76855;DHT22;66343;44.588;33.450;2023-06-14T05:49:29;21.13;75.89
76855;DHT22;66343;44.588;33.450;2023-06-14T05:52:01;21.11;76.17
76855;DHT22;66343;44.588;33.450;2023-06-14T05:54:34;21.10;75.99
76855;DHT22;66343;44.588;33.450;2023-06-14T05:57:03;21.05;76.83
76855;DHT22;66343;44.588;33.450;2023-06-14T05:59:37;20.93;77.22
76855;DHT22;66343;44.588;33.450;2023-06-14T06:02:07;20.84;77.98
76855;DHT22;66343;44.588;33.450;2023-06-14T06:04:42;20.74;78.78
76855;DHT22;66343;44.588;33.450;2023-06-14T06:07:11;20.68;78.81
76855;DHT22;66343;44.588;33.450;2023-06-14T06:09:44;20.60;79.37
76855;DHT22;66343;44.588;33.450;2023-06-14T06:12:13;20.60;79.89
76855;DHT22;66343;44.588;33.450;2023-06-14T06:14:45;20.65;80.49
76855;DHT22;66343;44.588;33.450;2023-06-14T06:17:17;20.63;80.65
76855;DHT22;66343;44.588;33.450;2023-06-14T06:19:47;20.61;81.10
76855;DHT22;66343;44.588;33.450;2023-06-14T06:22:19;20.59;81.43
76855;DHT22;66343;44.588;33.450;2023-06-14T06:24:48;20.56;81.66
76855;DHT22;66343;44.588;33.450;2023-06-14T06:27:20;20.59;81.67
76855;DHT22;66343;44.588;33.450;2023-06-14T06:29:49;20.64;81.61
76855;DHT22;66343;44.588;33.450;2023-06-14T06:32:25;20.69;81.25
76855;DHT22;66343;44.588;33.450;2023-06-14T06:34:59;20.72;81.22
76855;DHT22;66343;44.588;33.450;2023-06-14T06:37:36;20.64;81.55
76855;DHT22;66343;44.588;33.450;2023-06-14T06:40:13;20.64;82.09
76855;DHT22;66343;44.588;33.450;2023-06-14T06:42:44;20.65;82.42
76855;DHT22;66343;44.588;33.450;2023-06-14T06:45:20;20.62;83.06
76855;DHT22;66343;44.588;33.450;2023-06-14T06:47:52;20.50;83.65
76855;DHT22;66343;44.588;33.450;2023-06-14T06:50:26;20.46;83.96
76855;DHT22;66343;44.588;33.450;2023-06-14T06:52:59;20.42;83.30
76855;DHT22;66343;44.588;33.450;2023-06-14T06:55:30;20.29;83.07
76855;DHT22;66343;44.588;33.450;2023-06-14T06:58:03;20.30;83.31
76855;DHT22;66343;44.588;33.450;2023-06-14T07:00:39;20.31;83.73
76855;DHT22;66343;44.588;33.450;2023-06-14T07:03:13;20.29;83.20
76855;DHT22;66343;44.588;33.450;2023-06-14T07:05:42;20.28;82.60
76855;DHT22;66343;44.588;33.450;2023-06-14T07:08:24;20.26;83.30
76855;DHT22;66343;44.588;33.450;2023-06-14T07:10:59;20.24;83.68
76855;DHT22;66343;44.588;33.450;2023-06-14T07:13:31;20.27;83.70
76855;DHT22;66343;44.588;33.450;2023-06-14T07:16:03;20.28;83.46
76855;DHT22;66343;44.588;33.450;2023-06-14T07:18:33;20.25;83.07
76855;DHT22;66343;44.588;33.450;2023-06-14T07:21:02;20.25;82.85
76855;DHT22;66343;44.588;33.450;2023-06-14T07:23:40;20.25;83.53
76855;DHT22;66343;44.588;33.450;2023-06-14T07:26:13;20.28;83.49
76855;DHT22;66343;44.588;33.450;2023-06-14T07:28:43;20.29;83.38
76855;DHT22;66343;44.588;33.450;2023-06-14T07:31:19;20.24;83.22
76855;DHT22;66343;44.588;33.450;2023-06-14T07:33:48;20.24;83.24
76855;DHT22;66343;44.588;33.450;2023-06-14T07:36:20;20.22;82.29
76855;DHT22;66343;44.588;33.450;2023-06-14T07:38:53;20.22;81.66
76855;DHT22;66343;44.588;33.450;2023-06-14T07:41:24;20.22;81.91
76855;DHT22;66343;44.588;33.450;2023-06-14T07:43:55;20.16;81.74
76855;DHT22;66343;44.588;33.450;2023-06-14T07:46:30;20.20;82.12
76855;DHT22;66343;44.588;33.450;2023-06-14T07:49:02;20.20;82.19
76855;DHT22;66343;44.588;33.450;2023-06-14T07:51:32;20.20;82.31
76855;DHT22;66343;44.588;33.450;2023-06-14T07:54:05;20.18;82.50
76855;DHT22;66343;44.588;33.450;2023-06-14T07:56:39;20.15;82.52
76855;DHT22;66343;44.588;33.450;2023-06-14T07:59:15;20.12;82.81
76855;DHT22;66343;44.588;33.450;2023-06-14T08:01:50;20.13;83.50
76855;DHT22;66343;44.588;33.450;2023-06-14T08:04:26;20.19;83.26
76855;DHT22;66343;44.588;33.450;2023-06-14T08:07:03;20.17;83.49
76855;DHT22;66343;44.588;33.450;2023-06-14T08:09:37;20.18;83.54
76855;DHT22;66343;44.588;33.450;2023-06-14T08:12:10;20.27;83.81
76855;DHT22;66343;44.588;33.450;2023-06-14T08:14:44;20.27;83.05
76855;DHT22;66343;44.588;33.450;2023-06-14T08:17:18;20.35;83.37
76855;DHT22;66343;44.588;33.450;2023-06-14T08:19:50;20.45;83.02
76855;DHT22;66343;44.588;33.450;2023-06-14T08:22:25;20.51;83.35
76855;DHT22;66343;44.588;33.450;2023-06-14T08:24:59;20.59;83.53
76855;DHT22;66343;44.588;33.450;2023-06-14T08:27:32;20.66;82.97
76855;DHT22;66343;44.588;33.450;2023-06-14T08:30:05;20.72;80.87
76855;DHT22;66343;44.588;33.450;2023-06-14T08:32:44;20.84;79.76
76855;DHT22;66343;44.588;33.450;2023-06-14T08:35:31;20.95;79.30
76855;DHT22;66343;44.588;33.450;2023-06-14T08:38:10;21.06;80.98
76855;DHT22;66343;44.588;33.450;2023-06-14T08:40:45;21.22;79.77
76855;DHT22;66343;44.588;33.450;2023-06-14T08:43:19;21.24;78.44
76855;DHT22;66343;44.588;33.450;2023-06-14T08:46:12;21.24;78.21
76855;DHT22;66343;44.588;33.450;2023-06-14T08:48:58;21.23;78.50
76855;DHT22;66343;44.588;33.450;2023-06-14T08:51:35;21.20;78.90
76855;DHT22;66343;44.588;33.450;2023-06-14T08:54:06;21.25;78.20
76855;DHT22;66343;44.588;33.450;2023-06-14T08:56:41;21.38;77.83
76855;DHT22;66343;44.588;33.450;2023-06-14T08:59:16;21.54;78.37
76855;DHT22;66343;44.588;33.450;2023-06-14T09:01:55;21.64;77.97
76855;DHT22;66343;44.588;33.450;2023-06-14T09:04:40;21.70;77.40
76855;DHT22;66343;44.588;33.450;2023-06-14T09:07:13;21.84;76.69
76855;DHT22;66343;44.588;33.450;2023-06-14T09:09:44;21.92;74.93
76855;DHT22;66343;44.588;33.450;2023-06-14T09:12:36;22.01;74.86
76855;DHT22;66343;44.588;33.450;2023-06-14T09:15:27;22.23;76.82
76855;DHT22;66343;44.588;33.450;2023-06-14T09:18:04;22.27;73.53
76855;DHT22;66343;44.588;33.450;2023-06-14T09:20:39;22.17;73.48
76855;DHT22;66343;44.588;33.450;2023-06-14T09:23:12;22.21;75.40
76855;DHT22;66343;44.588;33.450;2023-06-14T09:25:48;22.37;74.76
76855;DHT22;66343;44.588;33.450;2023-06-14T09:28:20;22.43;73.86
76855;DHT22;66343;44.588;33.450;2023-06-14T09:30:56;22.33;73.28
76855;DHT22;66343;44.588;33.450;2023-06-14T09:33:34;22.35;74.41
76855;DHT22;66343;44.588;33.450;2023-06-14T09:36:31;22.49;74.67
76855;DHT22;66343;44.588;33.450;2023-06-14T09:39:05;22.55;74.16
76855;DHT22;66343;44.588;33.450;2023-06-14T09:41:39;22.56;73.64
76855;DHT22;66343;44.588;33.450;2023-06-14T09:44:12;22.56;73.53
76855;DHT22;66343;44.588;33.450;2023-06-14T09:46:53;22.41;71.30
76855;DHT22;66343;44.588;33.450;2023-06-14T09:49:26;22.24;72.38
76855;DHT22;66343;44.588;33.450;2023-06-14T09:52:03;22.39;73.06
76855;DHT22;66343;44.588;33.450;2023-06-14T09:54:41;22.32;72.79
76855;DHT22;66343;44.588;33.450;2023-06-14T09:57:16;22.42;72.38
76855;DHT22;66343;44.588;33.450;2023-06-14T09:59:53;22.38;71.75
76855;DHT22;66343;44.588;33.450;2023-06-14T10:02:42;22.14;72.80
76855;DHT22;66343;44.588;33.450;2023-06-14T10:05:25;22.05;73.32
76855;DHT22;66343;44.588;33.450;2023-06-14T10:08:30;21.99;73.74
76855;DHT22;66343;44.588;33.450;2023-06-14T10:11:14;21.89;74.54
76855;DHT22;66343;44.588;33.450;2023-06-14T10:13:53;21.73;75.88
76855;DHT22;66343;44.588;33.450;2023-06-14T10:16:32;21.64;76.96
76855;DHT22;66343;44.588;33.450;2023-06-14T10:19:25;21.52;77.82
76855;DHT22;66343;44.588;33.450;2023-06-14T10:22:41;21.44;78.32
76855;DHT22;66343;44.588;33.450;2023-06-14T10:25:13;21.48;78.37
76855;DHT22;66343;44.588;33.450;2023-06-14T10:27:47;21.44;78.08
76855;DHT22;66343;44.588;33.450;2023-06-14T10:30:28;21.39;75.83
76855;DHT22;66343;44.588;33.450;2023-06-14T10:33:07;21.38;76.19
76855;DHT22;66343;44.588;33.450;2023-06-14T10:35:36;21.35;76.65
76855;DHT22;66343;44.588;33.450;2023-06-14T10:38:07;21.44;77.27
76855;DHT22;66343;44.588;33.450;2023-06-14T10:40:38;21.47;76.05
76855;DHT22;66343;44.588;33.450;2023-06-14T10:43:24;21.49;76.21
76855;DHT22;66343;44.588;33.450;2023-06-14T10:46:19;21.66;76.02
76855;DHT22;66343;44.588;33.450;2023-06-14T10:48:57;21.75;74.39
76855;DHT22;66343;44.588;33.450;2023-06-14T10:51:41;21.69;74.62
76855;DHT22;66343;44.588;33.450;2023-06-14T10:54:22;21.75;73.61
76855;DHT22;66343;44.588;33.450;2023-06-14T10:57:02;21.82;73.74
76855;DHT22;66343;44.588;33.450;2023-06-14T10:59:36;21.93;73.79
76855;DHT22;66343;44.588;33.450;2023-06-14T11:02:38;22.07;73.72
76855;DHT22;66343;44.588;33.450;2023-06-14T11:05:27;22.12;72.64
76855;DHT22;66343;44.588;33.450;2023-06-14T11:11:14;22.24;72.62
76855;DHT22;66343;44.588;33.450;2023-06-14T11:13:52;22.22;72.19
76855;DHT22;66343;44.588;33.450;2023-06-14T11:16:21;22.31;72.80
76855;DHT22;66343;44.588;33.450;2023-06-14T11:19:03;22.55;72.28
76855;DHT22;66343;44.588;33.450;2023-06-14T11:21:33;22.80;71.11
76855;DHT22;66343;44.588;33.450;2023-06-14T11:24:14;23.12;69.85
76855;DHT22;66343;44.588;33.450;2023-06-14T11:26:46;23.50;69.07
76855;DHT22;66343;44.588;33.450;2023-06-14T11:29:21;24.04;68.44
76855;DHT22;66343;44.588;33.450;2023-06-14T11:31:51;24.20;66.49
76855;DHT22;66343;44.588;33.450;2023-06-14T11:34:29;24.11;65.85
76855;DHT22;66343;44.588;33.450;2023-06-14T11:37:03;23.81;66.15
76855;DHT22;66343;44.588;33.450;2023-06-14T11:39:36;23.57;67.20
76855;DHT22;66343;44.588;33.450;2023-06-14T11:42:13;23.30;67.92
76855;DHT22;66343;44.588;33.450;2023-06-14T11:44:46;22.99;69.07
76855;DHT22;66343;44.588;33.450;2023-06-14T11:47:16;22.86;69.82
76855;DHT22;66343;44.588;33.450;2023-06-14T11:49:46;22.61;70.99
76855;DHT22;66343;44.588;33.450;2023-06-14T11:52:19;22.48;71.41
76855;DHT22;66343;44.588;33.450;2023-06-14T11:54:49;22.38;72.55
76855;DHT22;66343;44.588;33.450;2023-06-14T11:57:19;22.33;72.52
76855;DHT22;66343;44.588;33.450;2023-06-14T11:59:52;22.22;73.06
76855;DHT22;66343;44.588;33.450;2023-06-14T12:02:22;22.22;73.23
76855;DHT22;66343;44.588;33.450;2023-06-14T12:05:04;22.17;73.20
76855;DHT22;66343;44.588;33.450;2023-06-14T12:07:42;22.10;73.22
76855;DHT22;66343;44.588;33.450;2023-06-14T12:10:44;22.08;73.50
76855;DHT22;66343;44.588;33.450;2023-06-14T12:16:07;22.09;73.04
76855;DHT22;66343;44.588;33.450;2023-06-14T12:18:42;22.14;72.47
76855;DHT22;66343;44.588;33.450;2023-06-14T12:21:12;22.21;71.80
76855;DHT22;66343;44.588;33.450;2023-06-14T12:23:49;22.25;71.61
76855;DHT22;66343;44.588;33.450;2023-06-14T12:26:23;22.29;71.44
76855;DHT22;66343;44.588;33.450;2023-06-14T12:29:04;22.37;71.90
76855;DHT22;66343;44.588;33.450;2023-06-14T12:31:36;22.49;72.16
76855;DHT22;66343;44.588;33.450;2023-06-14T12:34:10;22.51;71.27
76855;DHT22;66343;44.588;33.450;2023-06-14T12:36:43;22.35;71.64
76855;DHT22;66343;44.588;33.450;2023-06-14T12:39:17;22.21;72.61
76855;DHT22;66343;44.588;33.450;2023-06-14T12:41:47;22.09;73.28
76855;DHT22;66343;44.588;33.450;2023-06-14T12:44:21;21.97;73.69
76855;DHT22;66343;44.588;33.450;2023-06-14T12:46:54;21.87;73.88
76855;DHT22;66343;44.588;33.450;2023-06-14T12:49:27;21.83;74.37
76855;DHT22;66343;44.588;33.450;2023-06-14T12:52:04;21.82;73.04
76855;DHT22;66343;44.588;33.450;2023-06-14T12:57:24;21.79;72.49
76855;DHT22;66343;44.588;33.450;2023-06-14T13:00:02;21.79;72.00
76855;DHT22;66343;44.588;33.450;2023-06-14T13:02:32;21.80;71.22
76855;DHT22;66343;44.588;33.450;2023-06-14T13:05:07;21.76;70.95
76855;DHT22;66343;44.588;33.450;2023-06-14T13:10:26;21.61;71.10
76855;DHT22;66343;44.588;33.450;2023-06-14T13:12:56;21.55;71.04
76855;DHT22;66343;44.588;33.450;2023-06-14T13:15:30;21.54;71.00
76855;DHT22;66343;44.588;33.450;2023-06-14T13:18:00;21.51;71.49
76855;DHT22;66343;44.588;33.450;2023-06-14T13:20:32;21.55;71.76
76855;DHT22;66343;44.588;33.450;2023-06-14T13:23:28;21.61;71.79
76855;DHT22;66343;44.588;33.450;2023-06-14T13:26:02;21.66;72.02
76855;DHT22;66343;44.588;33.450;2023-06-14T13:28:31;21.68;71.93
76855;DHT22;66343;44.588;33.450;2023-06-14T13:31:03;21.64;72.13
76855;DHT22;66343;44.588;33.450;2023-06-14T13:33:38;21.59;72.54
76855;DHT22;66343;44.588;33.450;2023-06-14T13:36:27;21.48;73.67
76855;DHT22;66343;44.588;33.450;2023-06-14T13:38:56;21.44;75.38
76855;DHT22;66343;44.588;33.450;2023-06-14T13:41:35;21.39;76.21
76855;DHT22;66343;44.588;33.450;2023-06-14T13:44:07;21.29;76.74
76855;DHT22;66343;44.588;33.450;2023-06-14T13:46:47;21.17;77.36
76855;DHT22;66343;44.588;33.450;2023-06-14T13:49:19;21.14;78.11
76855;DHT22;66343;44.588;33.450;2023-06-14T13:51:52;21.11;78.47
76855;DHT22;66343;44.588;33.450;2023-06-14T13:54:26;21.07;78.14
76855;DHT22;66343;44.588;33.450;2023-06-14T13:57:00;21.08;77.68
76855;DHT22;66343;44.588;33.450;2023-06-14T13:59:32;21.15;76.86
76855;DHT22;66343;44.588;33.450;2023-06-14T14:02:05;21.20;76.27
76855;DHT22;66343;44.588;33.450;2023-06-14T14:04:35;21.23;74.95
76855;DHT22;66343;44.588;33.450;2023-06-14T14:07:08;21.30;74.93
76855;DHT22;66343;44.588;33.450;2023-06-14T14:09:40;21.36;74.04
76855;DHT22;66343;44.588;33.450;2023-06-14T14:12:17;21.40;74.38
76855;DHT22;66343;44.588;33.450;2023-06-14T14:14:46;21.53;74.07
76855;DHT22;66343;44.588;33.450;2023-06-14T14:17:21;21.53;73.70
76855;DHT22;66343;44.588;33.450;2023-06-14T14:19:54;21.55;74.14
76855;DHT22;66343;44.588;33.450;2023-06-14T14:22:27;21.54;74.09
76855;DHT22;66343;44.588;33.450;2023-06-14T14:24:56;21.49;74.18
76855;DHT22;66343;44.588;33.450;2023-06-14T14:27:36;21.48;74.54
76855;DHT22;66343;44.588;33.450;2023-06-14T14:30:09;21.47;74.30
76855;DHT22;66343;44.588;33.450;2023-06-14T14:32:42;21.48;74.54
76855;DHT22;66343;44.588;33.450;2023-06-14T14:35:13;21.55;74.78
76855;DHT22;66343;44.588;33.450;2023-06-14T14:37:46;21.57;74.54
76855;DHT22;66343;44.588;33.450;2023-06-14T14:40:34;21.55;74.44
76855;DHT22;66343;44.588;33.450;2023-06-14T14:43:09;21.52;74.96
76855;DHT22;66343;44.588;33.450;2023-06-14T14:45:43;21.53;74.54
76855;DHT22;66343;44.588;33.450;2023-06-14T14:48:16;21.51;74.25
76855;DHT22;66343;44.588;33.450;2023-06-14T14:50:52;21.58;74.02
76855;DHT22;66343;44.588;33.450;2023-06-14T14:53:34;21.60;73.55
76855;DHT22;66343;44.588;33.450;2023-06-14T14:56:10;21.63;73.22
76855;DHT22;66343;44.588;33.450;2023-06-14T14:58:48;21.58;73.35
76855;DHT22;66343;44.588;33.450;2023-06-14T15:01:22;21.59;73.04
76855;DHT22;66343;44.588;33.450;2023-06-14T15:03:54;21.55;73.25
76855;DHT22;66343;44.588;33.450;2023-06-14T15:06:27;21.54;73.80
76855;DHT22;66343;44.588;33.450;2023-06-14T15:08:59;21.49;73.68
76855;DHT22;66343;44.588;33.450;2023-06-14T15:11:35;21.45;73.67
76855;DHT22;66343;44.588;33.450;2023-06-14T15:14:07;21.46;74.28
76855;DHT22;66343;44.588;33.450;2023-06-14T15:19:37;21.40;73.77
76855;DHT22;66343;44.588;33.450;2023-06-14T15:22:10;21.37;74.25
76855;DHT22;66343;44.588;33.450;2023-06-14T15:24:45;21.30;74.80
76855;DHT22;66343;44.588;33.450;2023-06-14T15:27:22;21.22;75.26
76855;DHT22;66343;44.588;33.450;2023-06-14T15:29:52;21.24;75.44
76855;DHT22;66343;44.588;33.450;2023-06-14T15:32:28;21.17;75.73
76855;DHT22;66343;44.588;33.450;2023-06-14T15:35:00;21.22;75.95
76855;DHT22;66343;44.588;33.450;2023-06-14T15:37:32;21.21;76.21
76855;DHT22;66343;44.588;33.450;2023-06-14T15:40:01;21.21;76.18
76855;DHT22;66343;44.588;33.450;2023-06-14T15:42:30;21.23;75.54
76855;DHT22;66343;44.588;33.450;2023-06-14T15:47:50;21.21;74.02
76855;DHT22;66343;44.588;33.450;2023-06-14T15:50:20;21.22;73.90
76855;DHT22;66343;44.588;33.450;2023-06-14T15:52:53;21.22;73.67
76855;DHT22;66343;44.588;33.450;2023-06-14T15:55:30;21.24;73.49
76855;DHT22;66343;44.588;33.450;2023-06-14T15:58:05;21.25;73.70
76855;DHT22;66343;44.588;33.450;2023-06-14T16:00:37;21.28;73.93
76855;DHT22;66343;44.588;33.450;2023-06-14T16:03:09;21.27;74.20
76855;DHT22;66343;44.588;33.450;2023-06-14T16:05:41;21.25;74.54
76855;DHT22;66343;44.588;33.450;2023-06-14T16:08:13;21.25;74.86
76855;DHT22;66343;44.588;33.450;2023-06-14T16:11:04;21.23;75.47
76855;DHT22;66343;44.588;33.450;2023-06-14T16:13:44;21.25;75.33
76855;DHT22;66343;44.588;33.450;2023-06-14T16:16:35;21.23;75.48
76855;DHT22;66343;44.588;33.450;2023-06-14T16:19:07;21.25;75.42
76855;DHT22;66343;44.588;33.450;2023-06-14T16:21:36;21.22;75.28